EGGP/LPL METAR and TAF weather

Enter ICAO airport designator
Station Type Date Time Source
EGGP METAR 2018/04/19 13:20 UTC NOAA

EGGP 191320Z 27007KT CAVOK 21/12 Q1023


Station Type Date Time Source
EGGP Decoded METAR 2018/04/19 13:20 UTC NOAA

Liverpool Airport , United Kingdom (EGGP) 53-20N 002-51W
Apr 19, 2018 - 09:20 AM EDT / 2018.04.19 1320 UTC
Wind: from the W (270 degrees) at 8 MPH (7 KT):0
Visibility: greater than 7 mile(s):0
Temperature: 69 F (21 C)
Dew Point: 53 F (12 C)
Relative Humidity: 56%
Pressure (altimeter): 30.21 in. Hg (1023 hPa)
ob: EGGP 191320Z 27007KT CAVOK 21/12 Q1023
cycle: 13

Station Type Date Time Source
EGGP TAF 2018/04/19 12:15 UTC NOAA

TAF EGGP 191054Z 1912/2012 24005KT CAVOK
BECMG 1912/1915 32010KT
BECMG 2001/2003 BKN010
TEMPO 2002/2009 2000 BR BKN002
BECMG 2007/2010 FEW040


Example: see airport list